Terminal Aerodrome Forecast
Issued by NWS Paducah, KY

Home | Current Version | Previous Version | Text Only | Print | Product List | Glossary On
Versions: 1 2 3 4 5 6 7 8 9 10 11 12 13 14 15 16
000
FTUS43 KPAH 141100
TAFEVV
TAF
KEVV 141120Z 1412/1512 22007KT 5SM -SHRA BR SCT035 BKN100
      TEMPO 1412/1414 BKN035
     FM141400 25007KT P6SM SCT025 BKN080
      TEMPO 1414/1418 BKN025
     FM150100 29007KT P6SM -SHRA BKN030
     FM150400 32006KT P6SM SCT035 BKN060
     FM151100 32006KT P6SM SCT060=

USA.gov is the U.S. government's official web portal to all federal, state and local government web resources and services.